Time;durP1;ratioP1;P1;durP2;ratioP2;P2;SDS_P1;SDS_P2;PMS_P1;PMS_P2;Temp;Humidity;BMP_temperature;BMP_pressure;BME280_temperature;BME280_humidity;BME280_pressure;Samples;Min_cycle;Max_cycle;Signal;HPM_P1;HPM_P2
2022/04/18 00:02:24;;;;;;;2.43;1.30;;;17.20;50.50;;;;;;4961362;28;20182;-91
2022/04/18 00:04:49;;;;;;;1.87;1.30;;;17.50;49.70;;;;;;4961053;28;20189;-91
2022/04/18 00:07:15;;;;;;;1.63;1.10;;;17.40;49.80;;;;;;4961214;28;20199;-91
2022/04/18 00:09:41;;;;;;;3.13;1.30;;;17.60;49.20;;;;;;4961142;28;20647;-91
2022/04/18 00:12:07;;;;;;;2.67;1.20;;;17.30;50.30;;;;;;4961185;28;20270;-91
2022/04/18 00:14:33;;;;;;;2.07;1.30;;;17.10;50.40;;;;;;4966457;28;20225;-91
2022/04/18 00:16:59;;;;;;;1.33;1.00;;;17.20;49.80;;;;;;4980605;28;20697;-91
2022/04/18 00:19:25;;;;;;;2.27;1.43;;;17.20;49.50;;;;;;4980284;28;20178;-92
2022/04/18 00:21:51;;;;;;;2.53;1.40;;;17.20;49.00;;;;;;4980325;28;20193;-91
2022/04/18 00:24:20;;;;;;;1.90;1.20;;;17.20;49.00;;;;;;4979661;28;20643;-91
2022/04/18 00:26:47;;;;;;;3.47;1.50;;;17.10;49.30;;;;;;4973909;28;20187;-91
2022/04/18 00:29:14;;;;;;;1.90;1.23;;;17.00;49.20;;;;;;4969224;28;20182;-93
2022/04/18 00:31:39;;;;;;;2.60;1.30;;;17.20;48.70;;;;;;4980079;28;20692;-91
2022/04/18 00:34:06;;;;;;;1.90;1.20;;;17.20;48.50;;;;;;4979847;28;20213;-92
2022/04/18 00:36:32;;;;;;;1.73;1.00;;;17.20;48.80;;;;;;4980154;28;20651;-92
2022/04/18 00:38:58;;;;;;;1.20;1.10;;;17.10;48.50;;;;;;4980503;28;20244;-91
2022/04/18 00:41:24;;;;;;;1.50;1.23;;;17.00;48.90;;;;;;4980805;28;20224;-92
2022/04/18 00:43:50;;;;;;;1.10;1.00;;;17.00;48.60;;;;;;4981996;28;20264;-91
2022/04/18 00:46:19;;;;;;;1.17;1.07;;;16.70;49.10;;;;;;4980642;28;20182;-91
2022/04/18 00:48:45;;;;;;;1.63;1.20;;;16.80;49.20;;;;;;4964442;28;20177;-91
2022/04/18 00:51:16;;;;;;;3.90;1.10;;;16.90;48.40;;;;;;4963998;28;20194;-91
2022/04/18 00:53:44;;;;;;;1.67;1.33;;;16.90;48.50;;;;;;4962749;28;20198;-91
2022/04/18 00:56:14;;;;;;;1.83;1.27;;;16.80;48.40;;;;;;4963607;28;20620;-92
2022/04/18 00:58:41;;;;;;;2.60;1.27;;;16.60;48.60;;;;;;4965635;28;20184;-91
2022/04/18 01:01:08;;;;;;;1.10;1.03;;;16.40;48.90;;;;;;4964799;28;20625;-92
2022/04/18 01:03:33;;;;;;;1.83;1.07;;;16.20;49.60;;;;;;4961869;28;20663;-91
2022/04/18 01:06:00;;;;;;;1.17;1.07;;;16.10;49.60;;;;;;4960270;28;20190;-92
2022/04/18 01:08:28;;;;;;;3.20;1.20;;;16.00;50.10;;;;;;4960866;28;20601;-93
2022/04/18 01:10:55;;;;;;;1.87;1.50;;;16.00;49.70;;;;;;4960325;28;20206;-91
2022/04/18 01:13:21;;;;;;;3.63;1.20;;;16.00;49.80;;;;;;4960296;28;20182;-91
2022/04/18 01:15:52;;;;;;;3.07;1.20;;;15.80;51.40;;;;;;4959825;28;20216;-91
2022/04/18 01:18:18;;;;;;;1.97;1.20;;;16.00;50.60;;;;;;4959913;28;20178;-90
2022/04/18 01:20:44;;;;;;;0.93;0.87;;;16.00;49.90;;;;;;4959736;28;20194;-92
2022/04/18 01:23:10;;;;;;;2.23;1.33;;;16.30;49.40;;;;;;4959815;28;20293;-92
2022/04/18 01:31:05;;;;;;;3.60;1.10;;;15.80;51.60;;;;;;4977093;28;20186;-91
2022/04/18 01:33:31;;;;;;;1.43;1.10;;;15.90;50.90;;;;;;4959857;28;20178;-91
2022/04/18 01:35:57;;;;;;;2.03;1.27;;;15.60;51.80;;;;;;4959530;28;20232;-91
2022/04/18 01:38:23;;;;;;;1.90;1.07;;;15.40;53.40;;;;;;4959717;28;20184;-93
2022/04/18 01:40:48;;;;;;;1.70;0.97;;;15.40;53.80;;;;;;4971332;28;20184;-91
2022/04/18 01:43:15;;;;;;;3.33;1.40;;;15.50;53.50;;;;;;4973926;28;20268;-92
2022/04/18 01:45:42;;;;;;;3.03;2.07;;;15.40;54.30;;;;;;4959798;28;20269;-91
2022/04/18 01:48:07;;;;;;;3.57;1.77;;;15.30;54.40;;;;;;4959895;28;20183;-91
2022/04/18 01:50:33;;;;;;;2.37;1.67;;;15.20;54.70;;;;;;4959232;28;20211;-91
2022/04/18 01:52:59;;;;;;;3.00;1.67;;;15.00;55.30;;;;;;4959465;28;20230;-91
2022/04/18 01:55:25;;;;;;;2.17;1.73;;;14.80;55.50;;;;;;4959000;28;20226;-91
2022/04/18 01:57:51;;;;;;;3.60;1.60;;;15.00;55.10;;;;;;4959562;28;20185;-92
2022/04/18 02:00:16;;;;;;;5.90;1.90;;;15.10;54.80;;;;;;4959968;28;20631;-92
2022/04/18 02:02:43;;;;;;;15.90;5.53;;;15.00;54.30;;;;;;4959561;28;20179;-91
2022/04/18 02:05:09;;;;;;;8.87;3.70;;;15.10;54.50;;;;;;4959723;28;20182;-91
2022/04/18 02:07:35;;;;;;;11.87;4.57;;;15.20;55.20;;;;;;4978206;28;20240;-91
2022/04/18 02:10:02;;;;;;;22.47;8.00;;;15.30;54.80;;;;;;4978405;28;20276;-90
2022/04/18 02:12:29;;;;;;;22.67;7.43;;;15.00;55.50;;;;;;4978206;28;20178;-92
2022/04/18 02:14:55;;;;;;;22.40;7.27;;;14.90;55.70;;;;;;4977451;28;20216;-92
2022/04/18 02:17:20;;;;;;;29.13;8.77;;;14.70;56.20;;;;;;4978370;28;20185;-91
2022/04/18 02:19:48;;;;;;;22.13;7.50;;;14.50;57.00;;;;;;4978516;28;20190;-91
2022/04/18 02:22:14;;;;;;;28.37;8.77;;;14.30;58.00;;;;;;4976257;28;20200;-91
2022/04/18 02:24:40;;;;;;;25.87;7.97;;;14.30;57.60;;;;;;4978206;28;20216;-92
2022/04/18 02:27:06;;;;;;;20.27;7.17;;;14.20;57.60;;;;;;4977784;28;20595;-91
2022/04/18 02:29:33;;;;;;;23.80;6.93;;;14.20;58.30;;;;;;4977940;28;20220;-91
2022/04/18 02:34:43;;;;;;;18.57;5.87;;;14.10;58.90;;;;;;4995680;28;20215;-91
2022/04/18 02:37:09;;;;;;;12.87;5.27;;;14.20;59.10;;;;;;4970409;28;20170;-91
2022/04/18 02:39:35;;;;;;;15.80;4.73;;;14.30;58.80;;;;;;4958320;28;20209;-91
2022/04/18 02:42:01;;;;;;;11.73;4.70;;;14.30;58.80;;;;;;4958419;28;20189;-91
2022/04/18 02:44:27;;;;;;;9.60;4.07;;;14.20;59.60;;;;;;4958505;28;20194;-90
2022/04/18 02:46:53;;;;;;;10.30;4.00;;;14.00;59.20;;;;;;4958632;28;20184;-91
2022/04/18 02:49:18;;;;;;;9.47;2.63;;;13.80;59.20;;;;;;4958772;28;20210;-91
2022/04/18 02:51:44;;;;;;;7.23;2.60;;;13.70;59.30;;;;;;4958473;28;20216;-90
2022/04/18 02:54:10;;;;;;;5.17;2.20;;;13.70;59.60;;;;;;4957813;28;20301;-91
2022/04/18 02:56:35;;;;;;;6.83;2.87;;;13.70;59.70;;;;;;4958811;28;20205;-91
2022/04/18 02:59:02;;;;;;;5.73;2.60;;;13.60;59.50;;;;;;4958127;28;20265;-92
2022/04/18 03:01:28;;;;;;;5.00;2.00;;;13.50;60.70;;;;;;4958143;28;20178;-91
2022/04/18 03:03:54;;;;;;;4.50;2.10;;;13.60;60.00;;;;;;4958233;28;20185;-91
2022/04/18 03:06:19;;;;;;;4.07;2.30;;;13.60;60.10;;;;;;4968313;28;20555;-91
2022/04/18 03:08:45;;;;;;;3.13;2.00;;;13.50;60.50;;;;;;4977393;28;20222;-91
2022/04/18 03:11:11;;;;;;;3.70;1.80;;;13.50;60.10;;;;;;4977353;28;20534;-91
2022/04/18 03:13:43;;;;;;;3.90;2.43;;;13.60;60.00;;;;;;4977688;28;20279;-91
2022/04/18 03:16:10;;;;;;;4.63;2.03;;;13.50;60.00;;;;;;4958026;28;20685;-90
2022/04/18 03:18:35;;;;;;;5.23;1.80;;;13.60;59.60;;;;;;4957912;28;20245;-90
2022/04/18 03:21:03;;;;;;;3.77;1.90;;;13.50;60.00;;;;;;4958347;28;20635;-91
2022/04/18 03:23:29;;;;;;;2.07;1.80;;;13.60;59.70;;;;;;4957302;28;20213;-91
2022/04/18 03:25:55;;;;;;;3.30;1.90;;;13.50;59.80;;;;;;4958484;28;20193;-91
2022/04/18 03:28:21;;;;;;;2.87;1.50;;;13.40;59.90;;;;;;4958199;28;20192;-91
2022/04/18 03:30:46;;;;;;;3.27;2.00;;;13.30;60.10;;;;;;4959089;28;20181;-91
2022/04/18 03:33:12;;;;;;;2.37;1.57;;;13.10;60.50;;;;;;4961223;28;20197;-92
2022/04/18 03:35:38;;;;;;;2.10;1.57;;;13.10;60.90;;;;;;4968478;28;20293;-90
2022/04/18 03:40:48;;;;;;;2.33;1.60;;;13.00;61.10;;;;;;4991202;28;20177;-91
2022/04/18 03:43:26;;;;;;;2.43;2.00;;;12.90;62.60;;;;;;4968934;28;20194;-92
2022/04/18 03:45:52;;;;;;;2.23;1.43;;;12.90;63.90;;;;;;4958187;28;20272;-91
2022/04/18 03:48:17;;;;;;;4.70;1.60;;;12.80;64.50;;;;;;4957492;28;20213;-89
2022/04/18 03:50:43;;;;;;;1.97;1.47;;;12.80;64.60;;;;;;4957459;28;20714;-91
2022/04/18 03:53:09;;;;;;;3.63;1.60;;;12.70;64.60;;;;;;4965807;28;20197;-91
2022/04/18 03:55:34;;;;;;;3.33;1.23;;;12.80;63.00;;;;;;4976555;28;20212;-90
2022/04/18 03:58:00;;;;;;;3.17;1.90;;;12.80;63.30;;;;;;4976852;28;20176;-91
2022/04/18 04:00:26;;;;;;;2.93;1.43;;;12.80;63.80;;;;;;4976852;28;20268;-91
2022/04/18 04:02:51;;;;;;;3.97;1.50;;;12.60;64.40;;;;;;4976924;28;20179;-91
2022/04/18 04:05:17;;;;;;;3.00;1.60;;;12.70;63.50;;;;;;4976310;28;20207;-92
2022/04/18 04:07:45;;;;;;;3.20;1.60;;;12.70;62.90;;;;;;4976633;28;20184;-91
2022/04/18 04:10:10;;;;;;;2.63;1.63;;;12.80;64.10;;;;;;4976421;28;20213;-91
2022/04/18 04:12:36;;;;;;;3.00;1.53;;;12.70;64.80;;;;;;4976405;28;20219;-92
2022/04/18 04:15:02;;;;;;;2.63;1.80;;;12.50;65.50;;;;;;4976501;28;20554;-91
2022/04/18 04:17:27;;;;;;;2.07;1.60;;;12.40;66.20;;;;;;4976521;28;20191;-91
2022/04/18 04:19:57;;;;;;;3.00;1.67;;;12.50;65.90;;;;;;4976403;28;20182;-91
2022/04/18 04:22:23;;;;;;;3.57;1.87;;;12.60;65.20;;;;;;4976505;28;20549;-91
2022/04/18 04:24:48;;;;;;;3.13;1.90;;;12.50;65.20;;;;;;4976175;28;20215;-91
2022/04/18 04:27:14;;;;;;;3.50;1.53;;;12.40;65.30;;;;;;4976668;28;20660;-91
2022/04/18 04:29:39;;;;;;;2.57;1.80;;;12.30;65.40;;;;;;4976404;28;20637;-91
2022/04/18 04:32:06;;;;;;;2.90;1.70;;;12.30;65.50;;;;;;4976476;28;20173;-92
2022/04/18 04:34:31;;;;;;;3.03;1.80;;;12.30;65.90;;;;;;4966675;28;20209;-92
2022/04/18 04:36:57;;;;;;;3.20;1.83;;;12.50;65.60;;;;;;4957255;28;20385;-91
2022/04/18 04:39:22;;;;;;;2.40;1.80;;;12.40;65.90;;;;;;4960207;28;20180;-91
2022/04/18 04:41:48;;;;;;;2.53;1.70;;;12.30;66.50;;;;;;4960743;28;20190;-91
2022/04/18 04:44:14;;;;;;;4.63;1.90;;;12.50;65.40;;;;;;4962874;28;20194;-91
2022/04/18 04:46:44;;;;;;;2.67;1.80;;;12.50;65.10;;;;;;4978725;28;20279;-91
2022/04/18 04:49:09;;;;;;;2.37;1.60;;;12.50;65.20;;;;;;4979475;28;20265;-91
2022/04/18 04:51:35;;;;;;;2.20;1.77;;;12.60;64.90;;;;;;4979770;28;20291;-91
2022/04/18 04:54:01;;;;;;;3.50;1.70;;;12.60;65.30;;;;;;4979793;28;20205;-91
2022/04/18 04:56:29;;;;;;;3.00;1.63;;;12.50;65.90;;;;;;4963417;28;20183;-91
2022/04/18 04:58:55;;;;;;;2.47;1.60;;;12.30;66.00;;;;;;4960370;28;20240;-91
2022/04/18 05:01:22;;;;;;;4.77;1.67;;;12.30;65.90;;;;;;4960360;28;20181;-91
2022/04/18 05:03:47;;;;;;;2.70;1.80;;;12.40;66.60;;;;;;4960422;28;20259;-91
2022/04/18 05:06:14;;;;;;;4.67;2.10;;;12.50;67.40;;;;;;4960391;28;20185;-91
2022/04/18 05:08:41;;;;;;;3.53;1.70;;;12.40;68.00;;;;;;4960077;28;20690;-92
2022/04/18 05:11:07;;;;;;;2.60;1.70;;;12.30;67.20;;;;;;4960190;28;20324;-92
2022/04/18 05:13:33;;;;;;;3.33;1.70;;;12.30;66.60;;;;;;4960181;28;20237;-91
2022/04/18 05:15:59;;;;;;;2.87;1.60;;;12.40;66.70;;;;;;4959880;28;20209;-92
2022/04/18 05:18:25;;;;;;;3.13;2.30;;;12.50;67.00;;;;;;4959842;28;20188;-91
2022/04/18 05:21:00;;;;;;;3.37;1.87;;;12.70;66.40;;;;;;4960075;28;20193;-91
2022/04/18 05:23:26;;;;;;;2.57;2.00;;;12.80;67.20;;;;;;4960115;28;20217;-91
2022/04/18 05:25:51;;;;;;;4.30;1.80;;;12.90;67.70;;;;;;4960100;28;20627;-91
2022/04/18 05:28:17;;;;;;;2.37;2.00;;;13.00;66.60;;;;;;4960155;28;20180;-91
2022/04/18 05:30:43;;;;;;;1.97;1.57;;;13.00;66.20;;;;;;4959972;28;20220;-91
2022/04/18 05:33:09;;;;;;;3.00;1.87;;;13.20;66.00;;;;;;4959673;28;20210;-91
2022/04/18 05:35:34;;;;;;;3.93;2.27;;;13.30;65.70;;;;;;4959517;28;20776;-91
2022/04/18 05:38:00;;;;;;;2.17;1.80;;;13.30;65.40;;;;;;4959646;28;20258;-92
2022/04/18 05:40:26;;;;;;;2.60;1.70;;;13.40;66.10;;;;;;4959559;28;20236;-90
2022/04/18 05:42:52;;;;;;;2.57;1.60;;;13.70;62.50;;;;;;4959961;28;20221;-92
2022/04/18 05:45:18;;;;;;;3.40;1.90;;;13.50;64.10;;;;;;4959692;28;20894;-91
2022/04/18 05:47:43;;;;;;;2.83;1.80;;;13.60;65.80;;;;;;4959854;28;20190;-91
2022/04/18 05:50:11;;;;;;;3.70;2.07;;;13.50;66.10;;;;;;4959610;28;20534;-91
2022/04/18 05:52:37;;;;;;;3.13;1.90;;;13.50;66.00;;;;;;4960325;28;20199;-91
2022/04/18 05:55:03;;;;;;;4.10;1.67;;;13.60;65.20;;;;;;4965786;28;20217;-91
2022/04/18 05:57:29;;;;;;;2.00;1.57;;;13.70;64.90;;;;;;4965668;28;20182;-91
2022/04/18 05:59:57;;;;;;;3.67;1.70;;;13.80;64.30;;;;;;4960252;28;20184;-91
2022/04/18 06:02:23;;;;;;;3.00;1.57;;;14.00;63.70;;;;;;4959866;28;20179;-91
2022/04/18 06:04:48;;;;;;;2.93;1.60;;;14.20;61.40;;;;;;4962612;28;20174;-92
2022/04/18 06:07:14;;;;;;;3.90;1.70;;;14.20;60.70;;;;;;4967001;28;20217;-91
2022/04/18 06:09:40;;;;;;;2.30;1.63;;;14.60;57.50;;;;;;4966867;28;20185;-91
2022/04/18 06:12:08;;;;;;;2.47;1.83;;;14.70;57.40;;;;;;4962743;28;20639;-91
2022/04/18 06:14:34;;;;;;;4.00;1.50;;;14.60;60.10;;;;;;4959856;28;20206;-91
2022/04/18 06:16:59;;;;;;;3.50;1.60;;;14.80;56.40;;;;;;4969344;28;20182;-91
2022/04/18 06:19:25;;;;;;;3.93;2.13;;;15.10;54.20;;;;;;4976383;28;20181;-91
2022/04/18 06:21:51;;;;;;;3.33;1.60;;;15.40;53.60;;;;;;4977924;28;20637;-91
2022/04/18 06:24:18;;;;;;;4.20;1.77;;;15.50;53.40;;;;;;4978337;28;20665;-92
2022/04/18 06:26:44;;;;;;;5.03;1.60;;;15.30;54.50;;;;;;4978137;28;20182;-91
2022/04/18 06:29:10;;;;;;;3.10;1.77;;;15.30;54.80;;;;;;4974222;28;20626;-91
2022/04/18 06:31:35;;;;;;;3.50;1.50;;;15.50;54.10;;;;;;4958674;28;20319;-91
2022/04/18 06:34:02;;;;;;;3.63;1.90;;;15.50;54.00;;;;;;4958884;28;20198;-91
2022/04/18 06:36:30;;;;;;;2.87;1.70;;;15.60;53.10;;;;;;4958611;28;20202;-91
2022/04/18 06:38:57;;;;;;;4.37;1.40;;;15.60;53.70;;;;;;4958605;28;20173;-91
2022/04/18 06:41:24;;;;;;;2.20;1.43;;;15.80;53.40;;;;;;4958362;28;20190;-91
2022/04/18 06:43:51;;;;;;;2.87;1.40;;;15.70;54.10;;;;;;4942801;28;20240;-91
2022/04/18 06:46:16;;;;;;;2.10;1.50;;;15.90;54.00;;;;;;4958127;28;20194;-92
2022/04/18 06:48:42;;;;;;;2.90;1.70;;;16.10;52.30;;;;;;4958430;28;20179;-91
2022/04/18 06:51:08;;;;;;;3.37;1.57;;;16.20;51.80;;;;;;4958182;28;20190;-91
2022/04/18 06:53:33;;;;;;;2.03;1.40;;;16.40;51.60;;;;;;4958240;28;20201;-91
2022/04/18 06:58:43;;;;;;;1.93;1.10;;;16.40;51.70;;;;;;4975504;28;20185;-91
2022/04/18 07:01:09;;;;;;;2.53;1.57;;;16.40;51.70;;;;;;4958150;28;20197;-91
2022/04/18 07:03:35;;;;;;;2.33;1.50;;;16.40;51.50;;;;;;4958313;28;20206;-91
2022/04/18 07:06:00;;;;;;;5.30;1.60;;;16.40;51.70;;;;;;4957974;28;20264;-90
2022/04/18 07:08:26;;;;;;;2.67;1.37;;;16.50;51.50;;;;;;4958079;28;20225;-91
2022/04/18 07:10:52;;;;;;;2.60;1.40;;;16.40;51.80;;;;;;4958297;28;20186;-90
2022/04/18 07:13:17;;;;;;;1.83;1.20;;;16.40;52.00;;;;;;4958025;28;20183;-91
2022/04/18 07:15:43;;;;;;;2.23;1.40;;;16.40;52.30;;;;;;4958435;28;20301;-91
2022/04/18 07:18:09;;;;;;;4.20;1.80;;;16.60;51.20;;;;;;4958147;28;20210;-91
2022/04/18 07:20:34;;;;;;;2.37;1.40;;;16.90;50.90;;;;;;4957905;28;20281;-90
2022/04/18 07:23:00;;;;;;;1.87;1.57;;;16.90;50.30;;;;;;4958228;28;20198;-91
2022/04/18 07:25:26;;;;;;;2.37;1.50;;;17.00;50.00;;;;;;4957944;28;20182;-90
2022/04/18 07:27:52;;;;;;;3.13;1.40;;;16.80;50.20;;;;;;4957727;28;20313;-90
2022/04/18 07:30:17;;;;;;;1.80;1.20;;;16.70;50.40;;;;;;4958702;28;20224;-91
2022/04/18 07:32:44;;;;;;;2.47;1.60;;;16.50;50.70;;;;;;4958123;28;20197;-91
2022/04/18 07:35:12;;;;;;;3.27;1.40;;;16.70;51.00;;;;;;4958660;28;20217;-90
2022/04/18 07:38:48;;;;;;;2.00;1.60;;;16.80;50.40;;;;;;4958987;28;20232;-91
2022/04/18 07:40:27;;;;;;;3.07;1.50;;;16.70;50.60;;;;;;4975147;28;20210;-90
2022/04/18 07:42:54;;;;;;;1.77;1.23;;;16.50;51.00;;;;;;4958034;28;20189;-91
2022/04/18 07:45:19;;;;;;;3.77;1.60;;;16.60;50.70;;;;;;4958636;28;20204;-90
2022/04/18 07:47:45;;;;;;;2.30;1.40;;;16.80;50.30;;;;;;4958669;28;20178;-90
2022/04/18 07:50:11;;;;;;;3.60;1.40;;;16.80;50.90;;;;;;4958135;28;20182;-90
2022/04/18 07:52:37;;;;;;;3.27;1.50;;;17.00;49.90;;;;;;4959576;28;20216;-90
2022/04/18 07:55:02;;;;;;;1.87;1.50;;;16.90;49.90;;;;;;4961854;28;20226;-90
2022/04/18 07:57:29;;;;;;;2.90;1.50;;;17.00;50.10;;;;;;4963246;28;20534;-91
2022/04/18 07:59:55;;;;;;;2.87;1.37;;;17.20;49.60;;;;;;4963670;28;20314;-90
2022/04/18 08:02:22;;;;;;;2.60;1.60;;;17.00;50.00;;;;;;4966206;28;20189;-91
2022/04/18 08:04:47;;;;;;;1.50;1.40;;;17.30;50.10;;;;;;4964053;28;20538;-90
2022/04/18 08:07:13;;;;;;;3.60;1.30;;;17.30;50.10;;;;;;4959036;28;20178;-90
2022/04/18 08:09:38;;;;;;;2.67;1.30;;;17.30;49.70;;;;;;4957541;28;20218;-91
2022/04/18 08:12:06;;;;;;;3.27;1.53;;;17.20;49.70;;;;;;4957333;28;20182;-90
2022/04/18 08:14:31;;;;;;;4.03;1.30;;;17.20;49.50;;;;;;4960979;28;20215;-90
2022/04/18 08:16:57;;;;;;;3.27;1.37;;;17.10;50.20;;;;;;4961415;28;20179;-90
2022/04/18 08:19:22;;;;;;;1.80;1.53;;;17.20;50.30;;;;;;4961065;28;20214;-90
2022/04/18 08:21:48;;;;;;;2.73;1.20;;;17.10;50.30;;;;;;4961124;28;20193;-90
2022/04/18 08:24:14;;;;;;;2.30;1.60;;;17.10;50.60;;;;;;4961441;28;20202;-91
2022/04/18 08:26:40;;;;;;;3.03;1.90;;;17.20;50.20;;;;;;4960888;28;20218;-91
2022/04/18 08:29:06;;;;;;;1.97;1.23;;;17.40;50.20;;;;;;4960920;28;20210;-90
2022/04/18 08:31:32;;;;;;;4.93;1.63;;;17.30;49.90;;;;;;4960900;28;20273;-91
2022/04/18 08:33:59;;;;;;;2.37;1.20;;;17.20;50.20;;;;;;4961093;28;20577;-90
2022/04/18 08:36:24;;;;;;;2.97;1.53;;;17.30;49.80;;;;;;4961143;28;20278;-90
2022/04/18 08:38:50;;;;;;;4.40;1.43;;;17.20;50.80;;;;;;4961525;28;20273;-91
2022/04/18 08:41:25;;;;;;;2.60;1.50;;;17.30;50.70;;;;;;4960347;28;20178;-90
2022/04/18 08:43:54;;;;;;;2.73;1.37;;;17.30;50.60;;;;;;4961504;28;20185;-90
2022/04/18 08:46:20;;;;;;;1.87;1.53;;;17.20;50.80;;;;;;4967774;28;20175;-90
2022/04/18 08:54:17;;;;;;;3.57;1.53;;;17.50;50.60;;;;;;4977984;28;20213;-91
2022/04/18 08:56:44;;;;;;;3.30;1.80;;;17.70;50.30;;;;;;4982711;28;20174;-90
2022/04/18 08:59:10;;;;;;;2.77;1.40;;;17.60;50.00;;;;;;4980135;28;20646;-90
2022/04/18 09:01:45;;;;;;;2.10;1.43;;;17.70;49.70;;;;;;4980784;28;20171;-90
2022/04/18 09:04:11;;;;;;;3.57;1.50;;;17.60;50.20;;;;;;4982759;28;20553;-90
2022/04/18 09:06:39;;;;;;;2.00;1.27;;;17.60;50.40;;;;;;4979560;28;20185;-90
2022/04/18 09:09:04;;;;;;;2.97;1.73;;;17.70;50.00;;;;;;4962099;28;20670;-90
2022/04/18 09:11:40;;;;;;;1.77;1.53;;;17.70;49.50;;;;;;4961125;28;20185;-90
2022/04/18 09:14:11;;;;;;;1.37;1.27;;;17.60;50.10;;;;;;4960146;28;20178;-90
2022/04/18 09:16:38;;;;;;;1.30;1.20;;;17.50;49.90;;;;;;4960273;28;20646;-90
2022/04/18 09:19:12;;;;;;;3.47;1.43;;;17.50;49.90;;;;;;4959815;28;20294;-90
2022/04/18 09:21:54;;;;;;;2.07;1.47;;;17.50;49.70;;;;;;4959731;28;20182;-90
2022/04/18 09:24:35;;;;;;;3.20;1.47;;;17.40;49.70;;;;;;4959352;28;20209;-91
2022/04/18 09:27:27;;;;;;;2.37;1.60;;;17.50;50.00;;;;;;4967161;28;20177;-91
2022/04/18 09:30:30;;;;;;;2.20;1.30;;;17.50;49.80;;;;;;4979314;28;20194;-91
2022/04/18 09:32:59;;;;;;;2.17;1.50;;;17.50;49.70;;;;;;4941390;28;20190;-91
2022/04/18 09:35:27;;;;;;;2.40;1.50;;;17.70;49.20;;;;;;4959369;28;20218;-90
2022/04/18 09:37:58;;;;;;;2.60;1.40;;;17.90;48.90;;;;;;4959341;28;20706;-91
2022/04/18 09:40:24;;;;;;;1.83;1.30;;;18.00;48.60;;;;;;4959097;28;20278;-91
2022/04/18 09:42:56;;;;;;;2.70;1.37;;;17.90;49.10;;;;;;4959572;28;20254;-90
2022/04/18 09:45:22;;;;;;;1.83;1.23;;;18.00;48.70;;;;;;4959878;28;20183;-92
2022/04/18 09:47:56;;;;;;;2.07;1.47;;;17.90;48.80;;;;;;4963806;28;20694;-91
2022/04/18 09:53:15;;;;;;;3.50;1.37;;;18.20;48.10;;;;;;4996090;28;20272;-91
2022/04/18 09:55:45;;;;;;;2.30;1.60;;;18.10;48.20;;;;;;4978528;28;20224;-91
2022/04/18 09:58:11;;;;;;;2.13;1.40;;;18.20;48.20;;;;;;4978287;28;20520;-91
2022/04/18 10:00:37;;;;;;;1.67;1.20;;;18.30;48.00;;;;;;4960070;28;20662;-90
2022/04/18 10:03:04;;;;;;;2.37;1.47;;;18.40;46.00;;;;;;4959297;28;20488;-90
2022/04/18 10:05:30;;;;;;;1.90;1.40;;;18.50;45.60;;;;;;4959177;28;20175;-90
2022/04/18 10:07:56;;;;;;;1.50;1.10;;;18.50;45.30;;;;;;4958928;28;20190;-90
2022/04/18 10:10:24;;;;;;;2.90;1.40;;;18.30;46.10;;;;;;4959261;28;20194;-90
2022/04/18 10:12:50;;;;;;;2.87;1.53;;;18.50;46.00;;;;;;4959420;28;20195;-91
2022/04/18 10:15:16;;;;;;;1.83;1.40;;;18.40;46.40;;;;;;4959355;28;20216;-90
2022/04/18 10:17:43;;;;;;;3.83;1.57;;;18.50;46.20;;;;;;4959323;28;20203;-91
2022/04/18 10:20:14;;;;;;;2.90;1.50;;;18.60;45.80;;;;;;4959533;28;20628;-90
2022/04/18 10:23:03;;;;;;;2.83;1.63;;;18.80;47.70;;;;;;4960437;28;20746;-90
2022/04/18 10:25:41;;;;;;;1.87;1.60;;;18.90;47.50;;;;;;4959893;28;20549;-90
2022/04/18 10:28:18;;;;;;;2.50;1.63;;;19.00;46.40;;;;;;4959992;28;20640;-90
2022/04/18 10:30:52;;;;;;;1.70;1.40;;;19.10;46.70;;;;;;4958909;28;20199;-90
2022/04/18 10:33:20;;;;;;;2.63;1.57;;;19.00;46.90;;;;;;4958791;28;20582;-90
2022/04/18 10:35:53;;;;;;;3.50;1.70;;;18.90;46.30;;;;;;4958324;28;20212;-90
2022/04/18 10:38:24;;;;;;;2.23;1.50;;;18.90;46.30;;;;;;4959299;28;20184;-90
2022/04/18 10:40:49;;;;;;;3.27;1.43;;;19.00;46.20;;;;;;4958762;28;20216;-90
2022/04/18 10:43:16;;;;;;;1.87;1.50;;;19.10;45.80;;;;;;4965117;28;20187;-90
2022/04/18 10:45:42;;;;;;;2.03;1.27;;;19.10;46.00;;;;;;4977633;28;20212;-90
2022/04/18 10:48:09;;;;;;;3.67;1.63;;;19.00;45.10;;;;;;4977555;28;20214;-90
2022/04/18 10:50:51;;;;;;;1.40;1.20;;;19.10;45.70;;;;;;4977641;28;20187;-90
2022/04/18 10:53:19;;;;;;;3.27;1.30;;;19.00;45.20;;;;;;4977539;28;20200;-90
2022/04/18 10:55:51;;;;;;;3.30;1.60;;;19.10;44.50;;;;;;4977377;28;20232;-90
2022/04/18 10:58:17;;;;;;;1.50;1.40;;;19.40;44.00;;;;;;4968960;28;20186;-90
2022/04/18 11:00:50;;;;;;;2.33;1.40;;;19.40;44.30;;;;;;4958278;28;20546;-90
2022/04/18 11:03:39;;;;;;;4.67;1.37;;;19.40;44.10;;;;;;4958129;28;20182;-90
2022/04/18 11:06:17;;;;;;;2.47;1.40;;;19.70;43.70;;;;;;4957721;28;20192;-89
2022/04/18 11:09:00;;;;;;;2.27;1.50;;;20.40;43.10;;;;;;4957944;28;20185;-89
2022/04/18 11:11:39;;;;;;;3.93;1.40;;;21.50;42.20;;;;;;4958062;28;20213;-89
2022/04/18 11:14:26;;;;;;;2.70;1.40;;;22.80;40.90;;;;;;4957868;28;20551;-90
2022/04/18 11:16:56;;;;;;;2.30;1.40;;;24.10;40.70;;;;;;4957894;28;20567;-90
2022/04/18 11:19:26;;;;;;;2.13;1.50;;;25.10;39.20;;;;;;4957926;28;20552;-89
2022/04/18 11:21:56;;;;;;;1.87;1.23;;;26.30;40.10;;;;;;4957490;28;20198;-90
2022/04/18 11:24:38;;;;;;;1.37;1.20;;;27.60;37.70;;;;;;4957604;28;20229;-89
2022/04/18 11:27:09;;;;;;;1.40;1.00;;;28.70;36.70;;;;;;4957731;28;20178;-89
2022/04/18 11:29:37;;;;;;;2.97;1.40;;;29.40;37.20;;;;;;4957477;28;20195;-90
2022/04/18 11:32:05;;;;;;;1.33;1.23;;;30.20;37.30;;;;;;4957756;28;20239;-90
2022/04/18 11:34:32;;;;;;;2.13;1.50;;;30.90;36.80;;;;;;4957488;28;20214;-91
2022/04/18 11:37:00;;;;;;;1.30;1.20;;;31.50;36.10;;;;;;4958331;28;20185;-90
2022/04/18 11:39:42;;;;;;;1.33;1.20;;;32.50;35.60;;;;;;4958868;28;20631;-90
2022/04/18 11:42:08;;;;;;;2.33;1.33;;;32.70;35.10;;;;;;4957691;28;20258;-91
2022/04/18 11:44:40;;;;;;;3.30;1.60;;;33.30;34.70;;;;;;4957604;28;20198;-90
2022/04/18 11:47:11;;;;;;;2.25;1.58;;;33.20;35.50;;;;;;4960261;28;20186;-90
2022/04/18 11:49:38;;;;;;;1.88;1.17;;;33.90;34.20;;;;;;4963695;28;20186;-91
2022/04/18 11:52:16;;;;;;;1.45;1.15;;;33.80;34.40;;;;;;4982387;28;20182;-90
2022/04/18 11:54:55;;;;;;;1.70;1.17;;;33.60;34.00;;;;;;4983417;28;20685;-91
2022/04/18 11:57:27;;;;;;;1.80;1.20;;;34.60;33.70;;;;;;4983875;28;20177;-93
2022/04/18 11:59:54;;;;;;;2.28;1.30;;;35.10;33.50;;;;;;4982978;28;20177;-91
2022/04/18 12:08:18;;;;;;;1.73;1.50;;;35.80;33.20;;;;;;4988225;28;20192;-89
2022/04/18 12:10:45;;;;;;;2.38;1.35;;;36.10;33.40;;;;;;4972808;28;20178;-91
2022/04/18 12:13:14;;;;;;;1.63;1.30;;;36.50;32.90;;;;;;4973376;28;20262;-92
2022/04/18 12:15:42;;;;;;;1.67;1.30;;;36.70;32.90;;;;;;4963890;28;20229;-90
2022/04/18 12:18:17;;;;;;;2.10;1.40;;;36.90;32.50;;;;;;4979609;28;20182;-90
2022/04/18 12:20:48;;;;;;;1.98;1.38;;;37.00;33.00;;;;;;4963501;28;20188;-90
2022/04/18 12:23:20;;;;;;;2.53;2.00;;;37.40;33.10;;;;;;4963549;28;20236;-89
2022/04/18 12:25:48;;;;;;;1.33;1.23;;;37.50;33.20;;;;;;4963249;28;20185;-89
2022/04/18 12:28:15;;;;;;;1.70;1.30;;;37.50;33.20;;;;;;4963659;28;20180;-90
2022/04/18 12:30:42;;;;;;;1.20;1.10;;;37.30;33.20;;;;;;4963678;28;20265;-89
2022/04/18 12:33:19;;;;;;;1.35;1.02;;;37.80;33.00;;;;;;4963303;28;20193;-89
2022/04/18 12:35:49;;;;;;;1.20;1.10;;;37.80;33.10;;;;;;4963571;28;20220;-88
2022/04/18 12:38:16;;;;;;;2.08;1.13;;;37.90;33.10;;;;;;4963357;28;20607;-89
2022/04/18 12:40:53;;;;;;;1.25;1.05;;;38.70;32.70;;;;;;4963487;28;20674;-90
2022/04/18 12:43:19;;;;;;;1.80;1.30;;;38.80;33.00;;;;;;4973971;28;20201;-89
2022/04/18 12:45:52;;;;;;;1.83;1.48;;;38.70;32.70;;;;;;4982780;28;20641;-89
2022/04/18 12:48:29;;;;;;;3.33;1.13;;;38.90;32.50;;;;;;4982038;28;20171;-89
2022/04/18 12:50:56;;;;;;;1.45;1.25;;;39.30;32.20;;;;;;4982750;28;20244;-89
2022/04/18 12:53:42;;;;;;;3.50;1.08;;;39.40;32.50;;;;;;4982824;28;20220;-88
2022/04/18 12:56:10;;;;;;;2.33;1.92;;;39.20;32.10;;;;;;4982269;28;20228;-88
2022/04/18 12:58:40;;;;;;;1.70;1.60;;;39.70;32.60;;;;;;4980762;28;20174;-88
2022/04/18 13:01:07;;;;;;;3.03;1.60;;;40.00;32.10;;;;;;4979671;28;20642;-89
2022/04/18 13:03:44;;;;;;;1.75;1.52;;;39.50;32.10;;;;;;4979366;28;20217;-88
2022/04/18 13:06:10;;;;;;;1.63;1.30;;;39.40;32.50;;;;;;4979458;28;20272;-88
2022/04/18 13:08:40;;;;;;;1.25;1.02;;;39.30;32.00;;;;;;4979589;28;20186;-89
2022/04/18 13:11:06;;;;;;;1.63;1.52;;;39.60;32.00;;;;;;4979441;28;20580;-89
2022/04/18 13:13:32;;;;;;;2.00;1.20;;;39.50;32.20;;;;;;4979414;28;20181;-89
2022/04/18 13:16:25;;;;;;;1.60;1.10;;;40.10;31.50;;;;;;4978785;28;20247;-89
2022/04/18 13:19:02;;;;;;;2.33;1.15;;;39.60;31.90;;;;;;4979438;28;20277;-89